sensor_id;sensor_type;location;lat;lon;timestamp;temperature;humidity
67868;SHT31;54672;46.096;14.470;2022-12-07T00:01:20;3.91;96.89
67868;SHT31;54672;46.096;14.470;2022-12-07T00:03:47;3.90;96.64
67868;SHT31;54672;46.096;14.470;2022-12-07T00:06:15;3.93;96.60
67868;SHT31;54672;46.096;14.470;2022-12-07T00:08:41;3.98;95.96
67868;SHT31;54672;46.096;14.470;2022-12-07T00:11:15;4.04;95.50
67868;SHT31;54672;46.096;14.470;2022-12-07T00:13:41;4.11;94.55
67868;SHT31;54672;46.096;14.470;2022-12-07T00:16:08;4.15;94.83
67868;SHT31;54672;46.096;14.470;2022-12-07T00:18:34;4.17;94.49
67868;SHT31;54672;46.096;14.470;2022-12-07T00:21:22;4.20;93.32
67868;SHT31;54672;46.096;14.470;2022-12-07T00:23:49;4.24;93.00
67868;SHT31;54672;46.096;14.470;2022-12-07T00:26:29;4.27;92.73
67868;SHT31;54672;46.096;14.470;2022-12-07T00:28:56;4.28;92.54
67868;SHT31;54672;46.096;14.470;2022-12-07T00:31:24;4.24;92.57
67868;SHT31;54672;46.096;14.470;2022-12-07T00:33:50;4.27;92.19
67868;SHT31;54672;46.096;14.470;2022-12-07T00:36:18;4.24;91.93
67868;SHT31;54672;46.096;14.470;2022-12-07T00:38:44;4.27;92.13
67868;SHT31;54672;46.096;14.470;2022-12-07T00:41:15;4.31;92.56
67868;SHT31;54672;46.096;14.470;2022-12-07T00:43:42;4.30;92.78
67868;SHT31;54672;46.096;14.470;2022-12-07T00:46:09;4.24;92.76
67868;SHT31;54672;46.096;14.470;2022-12-07T00:48:34;4.13;93.44
67868;SHT31;54672;46.096;14.470;2022-12-07T00:51:01;4.20;92.69
67868;SHT31;54672;46.096;14.470;2022-12-07T00:53:27;4.18;92.35
67868;SHT31;54672;46.096;14.470;2022-12-07T00:55:53;4.20;92.38
67868;SHT31;54672;46.096;14.470;2022-12-07T00:58:19;4.18;92.13
67868;SHT31;54672;46.096;14.470;2022-12-07T01:00:45;4.21;92.34
67868;SHT31;54672;46.096;14.470;2022-12-07T01:03:12;4.15;91.60
67868;SHT31;54672;46.096;14.470;2022-12-07T01:05:38;4.14;92.48
67868;SHT31;54672;46.096;14.470;2022-12-07T01:08:03;4.07;92.89
67868;SHT31;54672;46.096;14.470;2022-12-07T01:10:29;4.03;92.33
67868;SHT31;54672;46.096;14.470;2022-12-07T01:12:56;4.04;93.24
67868;SHT31;54672;46.096;14.470;2022-12-07T01:15:22;3.98;92.92
67868;SHT31;54672;46.096;14.470;2022-12-07T01:17:47;4.04;92.89
67868;SHT31;54672;46.096;14.470;2022-12-07T01:20:13;4.10;92.16
67868;SHT31;54672;46.096;14.470;2022-12-07T01:22:43;4.15;92.10
67868;SHT31;54672;46.096;14.470;2022-12-07T01:25:09;3.93;94.04
67868;SHT31;54672;46.096;14.470;2022-12-07T01:27:36;3.86;94.49
67868;SHT31;54672;46.096;14.470;2022-12-07T01:30:04;3.94;94.22
67868;SHT31;54672;46.096;14.470;2022-12-07T01:32:30;3.91;93.32
67868;SHT31;54672;46.096;14.470;2022-12-07T01:34:55;3.98;93.31
67868;SHT31;54672;46.096;14.470;2022-12-07T01:37:21;4.07;92.43
67868;SHT31;54672;46.096;14.470;2022-12-07T01:39:50;4.08;91.78
67868;SHT31;54672;46.096;14.470;2022-12-07T01:42:16;4.13;91.59
67868;SHT31;54672;46.096;14.470;2022-12-07T01:47:50;4.18;90.87
67868;SHT31;54672;46.096;14.470;2022-12-07T01:50:16;4.21;91.08
67868;SHT31;54672;46.096;14.470;2022-12-07T01:52:45;4.24;90.98
67868;SHT31;54672;46.096;14.470;2022-12-07T01:55:13;4.17;91.30
67868;SHT31;54672;46.096;14.470;2022-12-07T01:57:45;4.20;91.18
67868;SHT31;54672;46.096;14.470;2022-12-07T02:00:12;4.18;91.03
67868;SHT31;54672;46.096;14.470;2022-12-07T02:02:43;4.18;91.12
67868;SHT31;54672;46.096;14.470;2022-12-07T02:05:09;4.21;91.04
67868;SHT31;54672;46.096;14.470;2022-12-07T02:07:36;4.18;90.93
67868;SHT31;54672;46.096;14.470;2022-12-07T02:10:17;4.20;91.35
67868;SHT31;54672;46.096;14.470;2022-12-07T02:12:44;4.17;91.02
67868;SHT31;54672;46.096;14.470;2022-12-07T02:15:11;4.08;91.44
67868;SHT31;54672;46.096;14.470;2022-12-07T02:17:56;4.13;91.36
67868;SHT31;54672;46.096;14.470;2022-12-07T02:29:40;4.17;91.16
67868;SHT31;54672;46.096;14.470;2022-12-07T02:31:33;4.18;90.54
67868;SHT31;54672;46.096;14.470;2022-12-07T02:34:08;4.18;90.47
67868;SHT31;54672;46.096;14.470;2022-12-07T02:36:46;4.22;90.43
67868;SHT31;54672;46.096;14.470;2022-12-07T02:39:20;4.21;90.05
67868;SHT31;54672;46.096;14.470;2022-12-07T02:41:50;4.22;90.10
67868;SHT31;54672;46.096;14.470;2022-12-07T02:44:20;4.21;89.94
67868;SHT31;54672;46.096;14.470;2022-12-07T02:46:54;4.17;90.01
67868;SHT31;54672;46.096;14.470;2022-12-07T02:49:25;4.14;90.50
67868;SHT31;54672;46.096;14.470;2022-12-07T02:51:52;4.13;90.15
67868;SHT31;54672;46.096;14.470;2022-12-07T02:54:19;4.11;90.09
67868;SHT31;54672;46.096;14.470;2022-12-07T03:02:51;4.24;89.58
67868;SHT31;54672;46.096;14.470;2022-12-07T03:05:59;4.22;89.31
67868;SHT31;54672;46.096;14.470;2022-12-07T03:08:11;4.21;89.15
67868;SHT31;54672;46.096;14.470;2022-12-07T03:13:30;4.20;89.00
67868;SHT31;54672;46.096;14.470;2022-12-07T03:18:52;4.18;88.58
67868;SHT31;54672;46.096;14.470;2022-12-07T03:21:22;4.20;88.65
67868;SHT31;54672;46.096;14.470;2022-12-07T03:23:52;4.21;88.83
67868;SHT31;54672;46.096;14.470;2022-12-07T03:26:19;4.24;88.44
67868;SHT31;54672;46.096;14.470;2022-12-07T03:28:52;4.18;88.77
67868;SHT31;54672;46.096;14.470;2022-12-07T03:31:25;4.17;88.71
67868;SHT31;54672;46.096;14.470;2022-12-07T03:34:04;4.13;88.92
67868;SHT31;54672;46.096;14.470;2022-12-07T03:36:43;4.08;89.33
67868;SHT31;54672;46.096;14.470;2022-12-07T03:41:45;4.11;88.57
67868;SHT31;54672;46.096;14.470;2022-12-07T03:44:11;4.15;88.54
67868;SHT31;54672;46.096;14.470;2022-12-07T03:49:11;4.07;88.78
67868;SHT31;54672;46.096;14.470;2022-12-07T03:54:19;4.04;89.08
67868;SHT31;54672;46.096;14.470;2022-12-07T03:56:47;4.10;88.96
67868;SHT31;54672;46.096;14.470;2022-12-07T03:59:14;4.10;88.61
67868;SHT31;54672;46.096;14.470;2022-12-07T04:01:44;4.14;88.61
67868;SHT31;54672;46.096;14.470;2022-12-07T04:04:11;4.10;88.79
67868;SHT31;54672;46.096;14.470;2022-12-07T04:06:36;4.03;89.28
67868;SHT31;54672;46.096;14.470;2022-12-07T04:09:02;4.01;89.42
67868;SHT31;54672;46.096;14.470;2022-12-07T04:11:27;4.07;89.14
67868;SHT31;54672;46.096;14.470;2022-12-07T04:13:52;4.05;88.74
67868;SHT31;54672;46.096;14.470;2022-12-07T04:16:36;4.08;88.63
67868;SHT31;54672;46.096;14.470;2022-12-07T04:19:02;4.07;88.98
67868;SHT31;54672;46.096;14.470;2022-12-07T04:21:27;4.11;88.73
67868;SHT31;54672;46.096;14.470;2022-12-07T04:23:53;4.10;88.88
67868;SHT31;54672;46.096;14.470;2022-12-07T04:26:18;4.10;88.78
67868;SHT31;54672;46.096;14.470;2022-12-07T04:28:43;4.14;89.06
67868;SHT31;54672;46.096;14.470;2022-12-07T04:31:09;4.07;88.58
67868;SHT31;54672;46.096;14.470;2022-12-07T04:33:35;4.05;88.74
67868;SHT31;54672;46.096;14.470;2022-12-07T04:36:00;4.03;88.54
67868;SHT31;54672;46.096;14.470;2022-12-07T04:38:26;4.01;88.89
67868;SHT31;54672;46.096;14.470;2022-12-07T04:40:51;4.01;88.75
67868;SHT31;54672;46.096;14.470;2022-12-07T04:43:16;4.00;88.69
67868;SHT31;54672;46.096;14.470;2022-12-07T04:45:48;4.00;88.40
67868;SHT31;54672;46.096;14.470;2022-12-07T04:48:14;4.03;88.30
67868;SHT31;54672;46.096;14.470;2022-12-07T04:50:39;4.01;88.45
67868;SHT31;54672;46.096;14.470;2022-12-07T04:53:05;4.00;88.57
67868;SHT31;54672;46.096;14.470;2022-12-07T04:55:30;3.98;88.13
67868;SHT31;54672;46.096;14.470;2022-12-07T04:57:56;3.91;88.54
67868;SHT31;54672;46.096;14.470;2022-12-07T05:00:21;3.93;88.58
67868;SHT31;54672;46.096;14.470;2022-12-07T05:02:47;3.95;88.45
67868;SHT31;54672;46.096;14.470;2022-12-07T05:05:12;3.90;88.45
67868;SHT31;54672;46.096;14.470;2022-12-07T05:07:38;3.94;88.41
67868;SHT31;54672;46.096;14.470;2022-12-07T05:10:04;3.93;88.10
67868;SHT31;54672;46.096;14.470;2022-12-07T05:12:29;3.95;88.11
67868;SHT31;54672;46.096;14.470;2022-12-07T05:14:55;3.97;87.71
67868;SHT31;54672;46.096;14.470;2022-12-07T05:17:20;3.83;88.05
67868;SHT31;54672;46.096;14.470;2022-12-07T05:19:45;3.73;88.17
67868;SHT31;54672;46.096;14.470;2022-12-07T05:22:11;3.82;88.29
67868;SHT31;54672;46.096;14.470;2022-12-07T05:24:37;3.74;88.76
67868;SHT31;54672;46.096;14.470;2022-12-07T05:27:03;3.79;88.46
67868;SHT31;54672;46.096;14.470;2022-12-07T05:29:28;3.77;89.00
67868;SHT31;54672;46.096;14.470;2022-12-07T05:31:54;3.74;88.69
67868;SHT31;54672;46.096;14.470;2022-12-07T05:34:19;3.77;89.10
67868;SHT31;54672;46.096;14.470;2022-12-07T05:36:44;3.76;88.89
67868;SHT31;54672;46.096;14.470;2022-12-07T05:39:10;3.76;88.66
67868;SHT31;54672;46.096;14.470;2022-12-07T05:41:35;3.77;88.53
67868;SHT31;54672;46.096;14.470;2022-12-07T05:44:19;3.82;88.44
67868;SHT31;54672;46.096;14.470;2022-12-07T05:46:45;3.70;88.57
67868;SHT31;54672;46.096;14.470;2022-12-07T05:49:10;3.70;88.88
67868;SHT31;54672;46.096;14.470;2022-12-07T05:51:36;3.76;88.92
67868;SHT31;54672;46.096;14.470;2022-12-07T05:54:01;3.74;88.59
67868;SHT31;54672;46.096;14.470;2022-12-07T05:56:27;3.70;89.01
67868;SHT31;54672;46.096;14.470;2022-12-07T05:58:52;3.69;88.81
67868;SHT31;54672;46.096;14.470;2022-12-07T06:01:36;3.73;88.87
67868;SHT31;54672;46.096;14.470;2022-12-07T06:04:01;3.74;88.87
67868;SHT31;54672;46.096;14.470;2022-12-07T06:06:27;3.74;89.42
67868;SHT31;54672;46.096;14.470;2022-12-07T06:08:52;3.73;89.71
67868;SHT31;54672;46.096;14.470;2022-12-07T06:11:18;3.73;89.59
67868;SHT31;54672;46.096;14.470;2022-12-07T06:14:02;3.74;89.84
67868;SHT31;54672;46.096;14.470;2022-12-07T06:16:27;3.80;89.16
67868;SHT31;54672;46.096;14.470;2022-12-07T06:18:53;3.76;89.27
67868;SHT31;54672;46.096;14.470;2022-12-07T06:21:18;3.69;89.89
67868;SHT31;54672;46.096;14.470;2022-12-07T06:23:44;3.79;89.23
67868;SHT31;54672;46.096;14.470;2022-12-07T06:26:10;3.79;88.59
67868;SHT31;54672;46.096;14.470;2022-12-07T06:28:35;3.80;88.74
67868;SHT31;54672;46.096;14.470;2022-12-07T06:31:02;3.84;88.35
67868;SHT31;54672;46.096;14.470;2022-12-07T06:33:28;3.73;88.43
67868;SHT31;54672;46.096;14.470;2022-12-07T06:35:54;3.77;88.09
67868;SHT31;54672;46.096;14.470;2022-12-07T06:38:20;3.79;87.43
67868;SHT31;54672;46.096;14.470;2022-12-07T06:40:45;3.73;88.05
67868;SHT31;54672;46.096;14.470;2022-12-07T06:43:10;3.70;88.01
67868;SHT31;54672;46.096;14.470;2022-12-07T06:45:36;3.77;87.66
67868;SHT31;54672;46.096;14.470;2022-12-07T06:48:01;3.74;87.48
67868;SHT31;54672;46.096;14.470;2022-12-07T06:50:27;3.70;88.11
67868;SHT31;54672;46.096;14.470;2022-12-07T06:52:52;3.69;87.75
67868;SHT31;54672;46.096;14.470;2022-12-07T06:55:18;3.74;87.44
67868;SHT31;54672;46.096;14.470;2022-12-07T06:57:43;3.69;87.18
67868;SHT31;54672;46.096;14.470;2022-12-07T07:00:09;3.67;87.34
67868;SHT31;54672;46.096;14.470;2022-12-07T07:02:34;3.53;87.73
67868;SHT31;54672;46.096;14.470;2022-12-07T07:05:00;3.51;88.74
67868;SHT31;54672;46.096;14.470;2022-12-07T07:07:25;3.48;88.87
67868;SHT31;54672;46.096;14.470;2022-12-07T07:09:51;3.43;89.02
67868;SHT31;54672;46.096;14.470;2022-12-07T07:12:16;3.49;89.37
67868;SHT31;54672;46.096;14.470;2022-12-07T07:14:42;3.49;87.82
67868;SHT31;54672;46.096;14.470;2022-12-07T07:17:08;3.43;88.49
67868;SHT31;54672;46.096;14.470;2022-12-07T07:19:33;3.38;88.68
67868;SHT31;54672;46.096;14.470;2022-12-07T07:21:59;3.36;88.33
67868;SHT31;54672;46.096;14.470;2022-12-07T07:24:24;3.45;88.66
67868;SHT31;54672;46.096;14.470;2022-12-07T07:26:50;3.53;88.42
67868;SHT31;54672;46.096;14.470;2022-12-07T07:29:15;3.60;87.77
67868;SHT31;54672;46.096;14.470;2022-12-07T07:31:40;3.56;87.58
67868;SHT31;54672;46.096;14.470;2022-12-07T07:34:06;3.39;88.37
67868;SHT31;54672;46.096;14.470;2022-12-07T07:36:32;3.32;89.07
67868;SHT31;54672;46.096;14.470;2022-12-07T07:38:57;3.31;89.22
67868;SHT31;54672;46.096;14.470;2022-12-07T07:41:23;3.26;89.20
67868;SHT31;54672;46.096;14.470;2022-12-07T07:43:48;3.28;90.31
67868;SHT31;54672;46.096;14.470;2022-12-07T07:46:13;3.31;89.88
67868;SHT31;54672;46.096;14.470;2022-12-07T07:48:39;3.25;90.05
67868;SHT31;54672;46.096;14.470;2022-12-07T07:51:08;3.28;88.83
67868;SHT31;54672;46.096;14.470;2022-12-07T07:53:34;3.39;88.64
67868;SHT31;54672;46.096;14.470;2022-12-07T07:55:59;3.51;87.81
67868;SHT31;54672;46.096;14.470;2022-12-07T07:58:25;3.42;87.75
67868;SHT31;54672;46.096;14.470;2022-12-07T08:00:50;3.48;86.99
67868;SHT31;54672;46.096;14.470;2022-12-07T08:03:16;3.59;86.69
67868;SHT31;54672;46.096;14.470;2022-12-07T08:05:42;3.56;86.43
67868;SHT31;54672;46.096;14.470;2022-12-07T08:08:07;3.39;86.97
67868;SHT31;54672;46.096;14.470;2022-12-07T08:10:32;3.42;87.37
67868;SHT31;54672;46.096;14.470;2022-12-07T08:12:59;3.39;87.48
67868;SHT31;54672;46.096;14.470;2022-12-07T08:15:39;3.49;87.24
67868;SHT31;54672;46.096;14.470;2022-12-07T08:18:05;3.48;86.73
67868;SHT31;54672;46.096;14.470;2022-12-07T08:20:32;3.40;86.53
67868;SHT31;54672;46.096;14.470;2022-12-07T08:22:58;3.52;86.68
67868;SHT31;54672;46.096;14.470;2022-12-07T08:25:24;3.60;86.97
67868;SHT31;54672;46.096;14.470;2022-12-07T08:27:50;3.52;86.41
67868;SHT31;54672;46.096;14.470;2022-12-07T08:30:15;3.46;86.43
67868;SHT31;54672;46.096;14.470;2022-12-07T08:32:41;3.59;86.46
67868;SHT31;54672;46.096;14.470;2022-12-07T08:35:07;3.70;85.87
67868;SHT31;54672;46.096;14.470;2022-12-07T08:37:33;3.83;85.17
67868;SHT31;54672;46.096;14.470;2022-12-07T08:39:58;3.82;85.37
67868;SHT31;54672;46.096;14.470;2022-12-07T08:42:24;3.95;85.00
67868;SHT31;54672;46.096;14.470;2022-12-07T08:44:54;4.17;84.78
67868;SHT31;54672;46.096;14.470;2022-12-07T08:47:20;4.18;83.88
67868;SHT31;54672;46.096;14.470;2022-12-07T08:49:47;4.18;83.18
67868;SHT31;54672;46.096;14.470;2022-12-07T08:52:13;4.07;83.68
67868;SHT31;54672;46.096;14.470;2022-12-07T08:54:40;4.14;84.01
67868;SHT31;54672;46.096;14.470;2022-12-07T08:57:06;4.25;83.77
67868;SHT31;54672;46.096;14.470;2022-12-07T08:59:34;4.15;83.43
67868;SHT31;54672;46.096;14.470;2022-12-07T09:02:01;4.22;84.06
67868;SHT31;54672;46.096;14.470;2022-12-07T09:04:27;4.17;84.22
67868;SHT31;54672;46.096;14.470;2022-12-07T09:06:53;4.61;83.42
67868;SHT31;54672;46.096;14.470;2022-12-07T09:09:19;4.52;82.32
67868;SHT31;54672;46.096;14.470;2022-12-07T09:11:45;4.84;81.77
67868;SHT31;54672;46.096;14.470;2022-12-07T09:14:10;4.93;81.72
67868;SHT31;54672;46.096;14.470;2022-12-07T09:16:36;5.04;81.50
67868;SHT31;54672;46.096;14.470;2022-12-07T09:19:01;5.06;82.06
67868;SHT31;54672;46.096;14.470;2022-12-07T09:21:26;5.09;81.85
67868;SHT31;54672;46.096;14.470;2022-12-07T09:23:52;4.66;82.44
67868;SHT31;54672;46.096;14.470;2022-12-07T09:26:17;4.83;81.62
67868;SHT31;54672;46.096;14.470;2022-12-07T09:28:43;4.96;81.70
67868;SHT31;54672;46.096;14.470;2022-12-07T09:31:08;4.83;82.38
67868;SHT31;54672;46.096;14.470;2022-12-07T09:33:33;4.87;82.09
67868;SHT31;54672;46.096;14.470;2022-12-07T09:35:59;4.97;82.49
67868;SHT31;54672;46.096;14.470;2022-12-07T09:38:24;4.80;83.48
67868;SHT31;54672;46.096;14.470;2022-12-07T09:40:51;5.13;82.08
67868;SHT31;54672;46.096;14.470;2022-12-07T09:43:20;5.16;82.28
67868;SHT31;54672;46.096;14.470;2022-12-07T09:45:47;5.40;81.20
67868;SHT31;54672;46.096;14.470;2022-12-07T09:48:19;5.68;79.75
67868;SHT31;54672;46.096;14.470;2022-12-07T09:50:47;5.69;79.61
67868;SHT31;54672;46.096;14.470;2022-12-07T09:53:17;5.59;79.82
67868;SHT31;54672;46.096;14.470;2022-12-07T09:55:44;5.54;80.16
67868;SHT31;54672;46.096;14.470;2022-12-07T09:58:23;5.65;80.69
67868;SHT31;54672;46.096;14.470;2022-12-07T10:00:58;5.65;80.30
67868;SHT31;54672;46.096;14.470;2022-12-07T10:03:26;5.81;80.91
67868;SHT31;54672;46.096;14.470;2022-12-07T10:05:52;5.78;80.41
67868;SHT31;54672;46.096;14.470;2022-12-07T10:08:18;5.88;80.47
67868;SHT31;54672;46.096;14.470;2022-12-07T10:10:44;5.79;80.27
67868;SHT31;54672;46.096;14.470;2022-12-07T10:13:13;5.88;79.92
67868;SHT31;54672;46.096;14.470;2022-12-07T10:15:48;5.52;79.42
67868;SHT31;54672;46.096;14.470;2022-12-07T10:18:19;5.68;79.69
67868;SHT31;54672;46.096;14.470;2022-12-07T10:20:47;5.75;79.23
67868;SHT31;54672;46.096;14.470;2022-12-07T10:23:17;6.03;79.05
67868;SHT31;54672;46.096;14.470;2022-12-07T10:25:43;6.02;77.47
67868;SHT31;54672;46.096;14.470;2022-12-07T10:28:11;5.74;78.43
67868;SHT31;54672;46.096;14.470;2022-12-07T10:35:56;6.45;77.27
67868;SHT31;54672;46.096;14.470;2022-12-07T10:38:21;6.65;77.43
67868;SHT31;54672;46.096;14.470;2022-12-07T10:40:47;6.73;76.42
67868;SHT31;54672;46.096;14.470;2022-12-07T10:53:47;5.99;77.75
67868;SHT31;54672;46.096;14.470;2022-12-07T11:04:48;7.25;76.31
67868;SHT31;54672;46.096;14.470;2022-12-07T11:07:34;7.40;76.47
67868;SHT31;54672;46.096;14.470;2022-12-07T11:12:53;7.49;75.97
67868;SHT31;54672;46.096;14.470;2022-12-07T11:15:29;7.50;76.14
67868;SHT31;54672;46.096;14.470;2022-12-07T11:37:38;7.57;76.99
67868;SHT31;54672;46.096;14.470;2022-12-07T11:40:26;7.50;76.91
67868;SHT31;54672;46.096;14.470;2022-12-07T11:42:59;7.26;77.57
67868;SHT31;54672;46.096;14.470;2022-12-07T11:45:30;7.01;78.40
67868;SHT31;54672;46.096;14.470;2022-12-07T11:50:36;7.39;78.48
67868;SHT31;54672;46.096;14.470;2022-12-07T11:58:33;7.76;77.24
67868;SHT31;54672;46.096;14.470;2022-12-07T12:03:50;8.05;76.21
67868;SHT31;54672;46.096;14.470;2022-12-07T12:06:16;8.11;76.19
67868;SHT31;54672;46.096;14.470;2022-12-07T12:14:58;8.35;74.69
67868;SHT31;54672;46.096;14.470;2022-12-07T12:20:13;8.59;74.66
67868;SHT31;54672;46.096;14.470;2022-12-07T12:23:15;8.55;74.11
67868;SHT31;54672;46.096;14.470;2022-12-07T12:25:47;8.62;73.54
67868;SHT31;54672;46.096;14.470;2022-12-07T12:31:10;8.88;73.02
67868;SHT31;54672;46.096;14.470;2022-12-07T12:33:37;8.86;73.16
67868;SHT31;54672;46.096;14.470;2022-12-07T12:36:23;8.79;73.40
67868;SHT31;54672;46.096;14.470;2022-12-07T12:47:40;8.45;74.47
67868;SHT31;54672;46.096;14.470;2022-12-07T12:50:16;8.36;74.22
67868;SHT31;54672;46.096;14.470;2022-12-07T12:57:34;8.16;74.77
67868;SHT31;54672;46.096;14.470;2022-12-07T13:00:03;8.04;75.27
67868;SHT31;54672;46.096;14.470;2022-12-07T13:02:56;8.02;75.03
67868;SHT31;54672;46.096;14.470;2022-12-07T13:05:31;7.83;75.93
67868;SHT31;54672;46.096;14.470;2022-12-07T13:08:00;7.88;76.36
67868;SHT31;54672;46.096;14.470;2022-12-07T13:18:40;8.05;76.01
67868;SHT31;54672;46.096;14.470;2022-12-07T13:31:47;7.97;79.80
67868;SHT31;54672;46.096;14.470;2022-12-07T13:34:31;7.93;80.06
67868;SHT31;54672;46.096;14.470;2022-12-07T13:37:00;7.70;80.15
67868;SHT31;54672;46.096;14.470;2022-12-07T13:39:27;7.54;81.14
67868;SHT31;54672;46.096;14.470;2022-12-07T13:41:54;7.37;82.18
67868;SHT31;54672;46.096;14.470;2022-12-07T13:44:23;7.29;83.15
67868;SHT31;54672;46.096;14.470;2022-12-07T13:49:47;7.15;83.34
67868;SHT31;54672;46.096;14.470;2022-12-07T13:52:24;7.04;83.93
67868;SHT31;54672;46.096;14.470;2022-12-07T13:55:05;6.92;84.10
67868;SHT31;54672;46.096;14.470;2022-12-07T13:57:33;6.88;84.39
67868;SHT31;54672;46.096;14.470;2022-12-07T14:00:00;6.84;84.50
67868;SHT31;54672;46.096;14.470;2022-12-07T14:02:30;6.74;84.95
67868;SHT31;54672;46.096;14.470;2022-12-07T14:05:16;6.70;85.07
67868;SHT31;54672;46.096;14.470;2022-12-07T14:07:55;6.64;85.27
67868;SHT31;54672;46.096;14.470;2022-12-07T14:10:30;6.53;85.51
67868;SHT31;54672;46.096;14.470;2022-12-07T14:12:57;6.50;85.78
67868;SHT31;54672;46.096;14.470;2022-12-07T14:15:29;6.54;85.71
67868;SHT31;54672;46.096;14.470;2022-12-07T14:17:56;6.45;85.80
67868;SHT31;54672;46.096;14.470;2022-12-07T14:22:55;6.44;85.77
67868;SHT31;54672;46.096;14.470;2022-12-07T14:25:23;6.51;85.62
67868;SHT31;54672;46.096;14.470;2022-12-07T14:30:29;6.61;85.72
67868;SHT31;54672;46.096;14.470;2022-12-07T14:32:58;6.70;85.47
67868;SHT31;54672;46.096;14.470;2022-12-07T14:35:25;6.65;85.74
67868;SHT31;54672;46.096;14.470;2022-12-07T14:37:51;6.65;85.91
67868;SHT31;54672;46.096;14.470;2022-12-07T14:40:34;6.67;85.76
67868;SHT31;54672;46.096;14.470;2022-12-07T14:43:05;6.64;85.96
67868;SHT31;54672;46.096;14.470;2022-12-07T14:45:32;6.60;85.96
67868;SHT31;54672;46.096;14.470;2022-12-07T14:47:58;6.60;85.84
67868;SHT31;54672;46.096;14.470;2022-12-07T14:50:23;6.57;85.96
67868;SHT31;54672;46.096;14.470;2022-12-07T14:52:56;6.57;86.35
67868;SHT31;54672;46.096;14.470;2022-12-07T14:55:26;6.57;86.44
67868;SHT31;54672;46.096;14.470;2022-12-07T14:57:52;6.60;86.17
67868;SHT31;54672;46.096;14.470;2022-12-07T15:00:18;6.57;86.02
67868;SHT31;54672;46.096;14.470;2022-12-07T15:02:46;6.58;86.28
67868;SHT31;54672;46.096;14.470;2022-12-07T15:05:12;6.58;86.07
67868;SHT31;54672;46.096;14.470;2022-12-07T15:07:38;6.54;86.27
67868;SHT31;54672;46.096;14.470;2022-12-07T15:10:05;6.47;86.39
67868;SHT31;54672;46.096;14.470;2022-12-07T15:12:30;6.40;86.80
67868;SHT31;54672;46.096;14.470;2022-12-07T15:14:56;6.37;87.00
67868;SHT31;54672;46.096;14.470;2022-12-07T15:17:21;6.37;87.19
67868;SHT31;54672;46.096;14.470;2022-12-07T15:19:46;6.37;87.44
67868;SHT31;54672;46.096;14.470;2022-12-07T15:22:12;6.43;87.33
67868;SHT31;54672;46.096;14.470;2022-12-07T15:24:37;6.43;87.40
67868;SHT31;54672;46.096;14.470;2022-12-07T15:27:03;6.40;87.41
67868;SHT31;54672;46.096;14.470;2022-12-07T15:29:28;6.41;87.27
67868;SHT31;54672;46.096;14.470;2022-12-07T15:31:54;6.43;87.56
67868;SHT31;54672;46.096;14.470;2022-12-07T15:34:19;6.44;87.46
67868;SHT31;54672;46.096;14.470;2022-12-07T15:36:45;6.40;87.87
67868;SHT31;54672;46.096;14.470;2022-12-07T15:39:11;6.43;87.73
67868;SHT31;54672;46.096;14.470;2022-12-07T15:41:37;6.43;87.75
67868;SHT31;54672;46.096;14.470;2022-12-07T15:44:02;6.38;87.88
67868;SHT31;54672;46.096;14.470;2022-12-07T15:46:46;6.40;87.78
67868;SHT31;54672;46.096;14.470;2022-12-07T15:49:15;6.36;87.75
67868;SHT31;54672;46.096;14.470;2022-12-07T15:51:41;6.30;87.89
67868;SHT31;54672;46.096;14.470;2022-12-07T15:54:09;6.36;87.94
67868;SHT31;54672;46.096;14.470;2022-12-07T15:56:36;6.34;87.67
67868;SHT31;54672;46.096;14.470;2022-12-07T15:59:02;6.29;87.76
67868;SHT31;54672;46.096;14.470;2022-12-07T16:01:27;6.19;87.74
67868;SHT31;54672;46.096;14.470;2022-12-07T16:03:53;6.15;87.91
67868;SHT31;54672;46.096;14.470;2022-12-07T16:06:19;6.22;87.89
67868;SHT31;54672;46.096;14.470;2022-12-07T16:08:45;6.22;88.12
67868;SHT31;54672;46.096;14.470;2022-12-07T16:11:11;6.22;87.53
67868;SHT31;54672;46.096;14.470;2022-12-07T16:13:37;6.20;87.81
67868;SHT31;54672;46.096;14.470;2022-12-07T16:16:13;6.20;87.77
67868;SHT31;54672;46.096;14.470;2022-12-07T16:18:39;6.16;87.57
67868;SHT31;54672;46.096;14.470;2022-12-07T16:21:04;6.09;87.83
67868;SHT31;54672;46.096;14.470;2022-12-07T16:23:30;6.07;88.04
67868;SHT31;54672;46.096;14.470;2022-12-07T16:26:04;6.10;88.35
67868;SHT31;54672;46.096;14.470;2022-12-07T16:28:30;6.09;87.70
67868;SHT31;54672;46.096;14.470;2022-12-07T16:31:07;6.06;87.71
67868;SHT31;54672;46.096;14.470;2022-12-07T16:33:34;6.07;87.97
67868;SHT31;54672;46.096;14.470;2022-12-07T16:36:00;6.09;88.02
67868;SHT31;54672;46.096;14.470;2022-12-07T16:38:26;6.09;88.20
67868;SHT31;54672;46.096;14.470;2022-12-07T16:40:52;6.09;88.16
67868;SHT31;54672;46.096;14.470;2022-12-07T16:43:18;6.12;87.96
67868;SHT31;54672;46.096;14.470;2022-12-07T16:45:45;6.15;88.12
67868;SHT31;54672;46.096;14.470;2022-12-07T16:48:11;6.16;88.08
67868;SHT31;54672;46.096;14.470;2022-12-07T16:50:39;6.20;87.38
67868;SHT31;54672;46.096;14.470;2022-12-07T16:53:06;6.27;86.43
67868;SHT31;54672;46.096;14.470;2022-12-07T16:55:35;6.30;86.70
67868;SHT31;54672;46.096;14.470;2022-12-07T16:58:01;6.22;87.49
67868;SHT31;54672;46.096;14.470;2022-12-07T17:00:26;6.26;86.83
67868;SHT31;54672;46.096;14.470;2022-12-07T17:02:51;6.24;87.38
67868;SHT31;54672;46.096;14.470;2022-12-07T17:05:17;6.24;87.50
67868;SHT31;54672;46.096;14.470;2022-12-07T17:07:42;6.20;87.44
67868;SHT31;54672;46.096;14.470;2022-12-07T17:10:08;6.16;87.69
67868;SHT31;54672;46.096;14.470;2022-12-07T17:12:33;6.16;87.85
67868;SHT31;54672;46.096;14.470;2022-12-07T17:14:59;6.20;87.34
67868;SHT31;54672;46.096;14.470;2022-12-07T17:17:50;6.09;87.65
67868;SHT31;54672;46.096;14.470;2022-12-07T17:20:16;6.22;87.57
67868;SHT31;54672;46.096;14.470;2022-12-07T17:22:43;6.13;87.89
67868;SHT31;54672;46.096;14.470;2022-12-07T17:25:08;6.16;87.57
67868;SHT31;54672;46.096;14.470;2022-12-07T17:27:34;6.16;87.63
67868;SHT31;54672;46.096;14.470;2022-12-07T17:30:00;6.09;88.13
67868;SHT31;54672;46.096;14.470;2022-12-07T17:32:25;6.09;88.24
67868;SHT31;54672;46.096;14.470;2022-12-07T17:34:51;6.03;88.69
67868;SHT31;54672;46.096;14.470;2022-12-07T17:37:16;6.01;89.05
67868;SHT31;54672;46.096;14.470;2022-12-07T17:39:41;6.01;89.35
67868;SHT31;54672;46.096;14.470;2022-12-07T17:42:08;6.05;88.87
67868;SHT31;54672;46.096;14.470;2022-12-07T17:44:52;5.98;89.00
67868;SHT31;54672;46.096;14.470;2022-12-07T17:47:18;6.02;88.59
67868;SHT31;54672;46.096;14.470;2022-12-07T17:49:45;6.03;88.81
67868;SHT31;54672;46.096;14.470;2022-12-07T17:52:11;5.99;89.05
67868;SHT31;54672;46.096;14.470;2022-12-07T17:54:55;6.01;89.98
67868;SHT31;54672;46.096;14.470;2022-12-07T17:57:21;5.98;90.24